Fissa — FGD5002 — position and weather

sailwx.info

Track history (hours):
 
Tides and Currents Weather Stations Pressure Air Temp Water Temp Dewpoint Dewpoint Depression Visibility Wind Speed Wind Dir Waves Ship Positions

Fissa

Last reported at 2017-Sep-04 14:18 UTC. Time now 2017-Sep-21 01:42 UTC.
Position N 48°23' W 004°26'.
Warning: this ship's position is 16 days out of date.

Length 8 m.

Type: Pleasure craft. MMSI: 227169310.

Date/timePositionNaut miles runAvg speedWind from/ knotsBaromVisibWave heightAir tempDewpointWater temp
2017-Sep-04 14:18N 48°23' W 004°26'1 3.8
2017-Sep-04 14:01N 48°23' W 004°27'1 2.6
2017-Sep-04 13:30N 48°21' W 004°28'2 3.9
2017-Sep-04 13:00N 48°20' W 004°28'1 2.2
2017-Sep-04 12:30N 48°19' W 004°27'2 3.7
2017-Sep-04 12:00N 48°18' W 004°24'1 2.4
2017-Sep-04 11:30N 48°19' W 004°23'1 2.1
2017-Sep-04 11:00N 48°19' W 004°24'2 3.2
2017-Sep-04 10:30N 48°19' W 004°27'2 3.5
2017-Sep-04 10:00N 48°20' W 004°29'1 2.8
2017-Sep-04 09:30N 48°20' W 004°31'3 5.4
2017-Sep-04 09:00N 48°20' W 004°35'2 4.5
2017-Sep-04 08:30N 48°17' W 004°35'1 0.0
2017-Sep-03 17:10N 48°17' W 004°35'0 0.0
2017-Sep-03 16:58N 48°17' W 004°35'1 1.2
2017-Sep-03 16:30N 48°17' W 004°36'2 4.4
2017-Sep-03 16:00N 48°17' W 004°39'2 3.7
2017-Sep-03 15:30N 48°16' W 004°41'3 5.7
2017-Sep-03 15:00N 48°14' W 004°40'6 6.1
2017-Sep-03 14:00N 48°09' W 004°34'7 6.4
2017-Sep-03 12:53N 48°07' W 004°24'2 0.2
2017-Sep-02 21:53N 48°06' W 004°20'0 0.0
2017-Sep-02 20:53N 48°06' W 004°20'0 0.0
2017-Sep-02 19:53N 48°06' W 004°20'0 0.0
2017-Sep-02 18:53N 48°06' W 004°20'0 0.0
2017-Sep-02 17:53N 48°06' W 004°20'0 0.0
2017-Sep-02 16:53N 48°06' W 004°20'1 0.9
2017-Sep-02 15:58N 48°07' W 004°21'6 5.5
2017-Sep-02 14:58N 48°11' W 004°26'3 2.9
2017-Sep-02 13:53N 48°11' W 004°30'3 3.1
2017-Sep-02 12:48N 48°10' W 004°35'2 2.9
2017-Sep-02 12:00N 48°12' W 004°36'1 2.7
2017-Sep-02 11:30N 48°13' W 004°37'2 3.3
2017-Sep-02 11:00N 48°14' W 004°38'2 4.2
2017-Sep-02 10:30N 48°17' W 004°38'3 6.1
2017-Sep-02 10:00N 48°19' W 004°36'3 5.5
2017-Sep-02 09:30N 48°21' W 004°32'3 6.0
2017-Sep-02 09:00N 48°22' W 004°28'2 3.9
2017-Sep-02 08:29N 48°23' W 004°26'0 0.0
2017-Aug-31 04:43N 48°24' W 004°26'0 0.0
2017-Aug-31 00:58N 48°24' W 004°26'0 0.0
2017-Aug-30 23:58N 48°24' W 004°26'0 0.0
2017-Aug-30 22:58N 48°24' W 004°26'0 0.0
2017-Aug-30 20:59N 48°24' W 004°26'0 0.0
2017-Aug-30 19:43N 48°24' W 004°26'0 0.0
2017-Aug-30 18:58N 48°24' W 004°26'0 0.0
2017-Aug-30 17:58N 48°24' W 004°26'0 0.0
2017-Aug-30 09:39N 48°24' W 004°26'1 4.0
2017-Aug-30 09:31N 48°23' W 004°26'2 4.7
2017-Aug-30 09:00N 48°22' W 004°29'1 1.2
2017-Aug-30 08:29N 48°23' W 004°29'0 0.0
2017-Aug-29 15:36N 48°23' W 004°29'0 0.0
2017-Aug-29 15:30N 48°23' W 004°29'1 1.9
2017-Aug-29 15:00N 48°22' W 004°29'2 4.2
2017-Aug-29 14:30N 48°20' W 004°28'1 2.0
2017-Aug-29 14:00N 48°20' W 004°27'0 0.0
2017-Aug-29 13:27N 48°20' W 004°27'0 0.0
2017-Aug-29 12:48N 48°20' W 004°27'0 0.0
2017-Aug-29 11:48N 48°20' W 004°27'0 0.0
2017-Aug-29 10:54N 48°20' W 004°27'1 3.2
2017-Aug-29 10:30N 48°20' W 004°29'2 4.9
2017-Aug-29 10:00N 48°21' W 004°32'2 4.6
2017-Aug-29 09:30N 48°19' W 004°35'2 4.4
2017-Aug-29 09:00N 48°17' W 004°35'0 0.0
2017-Aug-28 16:41N 48°17' W 004°35'0 0.3
2017-Aug-28 16:30N 48°17' W 004°35'2 3.8
2017-Aug-28 16:00N 48°17' W 004°38'2 4.7
2017-Aug-28 15:30N 48°15' W 004°40'3 5.4
2017-Aug-28 15:00N 48°13' W 004°37'4 4.3
2017-Aug-28 13:58N 48°10' W 004°32'4 0.8
2017-Aug-28 08:58N 48°14' W 004°30'0 0.0
2017-Aug-27 16:43N 48°13' W 004°30'2 0.8
2017-Aug-27 14:48N 48°12' W 004°30'3 4.2
2017-Aug-27 13:58N 48°10' W 004°35'3 5.7
2017-Aug-27 13:29N 48°13' W 004°36'2 4.8
2017-Aug-27 13:00N 48°15' W 004°38'2 4.9
2017-Aug-27 12:30N 48°17' W 004°38'2 4.0
2017-Aug-27 12:00N 48°17' W 004°35'0 0.0
2017-Aug-27 08:31N 48°17' W 004°35'0 0.0
2017-Aug-27 08:28N 48°17' W 004°35'0 0.3
2017-Aug-27 08:00N 48°17' W 004°35'0 0.0
2017-Aug-26 19:35N 48°17' W 004°35'0 0.0
2017-Aug-26 19:29N 48°17' W 004°35'1 2.6
2017-Aug-26 19:00N 48°18' W 004°35'2 4.7
2017-Aug-26 18:30N 48°20' W 004°34'2 4.2
2017-Aug-26 18:00N 48°21' W 004°31'2 3.7
2017-Aug-26 17:30N 48°22' W 004°29'2 3.7
2017-Aug-26 17:00N 48°23' W 004°26'1 0.7
2017-Aug-26 15:38N 48°24' W 004°26'  
Track history (hours):
 
Tides and Currents Weather Stations Pressure Air Temp Water Temp Dewpoint Dewpoint Depression Visibility Wind Speed Wind Dir Waves Ship Positions

Fissa

Last reported at 2017-Sep-04 14:18 UTC. Time now 2017-Sep-21 01:42 UTC.
Position N 48°23' W 004°26'.
Warning: this ship's position is 16 days out of date.

Length 8 m.

Type: Pleasure craft. MMSI: 227169310.

Date/timePositionNaut miles runAvg speedWind from/ knotsBaromVisibWave heightAir tempDewpointWater temp
2017-Sep-04 14:18N 48°23' W 004°26'1 3.8
2017-Sep-04 14:01N 48°23' W 004°27'1 2.6
2017-Sep-04 13:30N 48°21' W 004°28'2 3.9
2017-Sep-04 13:00N 48°20' W 004°28'1 2.2
2017-Sep-04 12:30N 48°19' W 004°27'2 3.7
2017-Sep-04 12:00N 48°18' W 004°24'1 2.4
2017-Sep-04 11:30N 48°19' W 004°23'1 2.1
2017-Sep-04 11:00N 48°19' W 004°24'2 3.2
2017-Sep-04 10:30N 48°19' W 004°27'2 3.5
2017-Sep-04 10:00N 48°20' W 004°29'1 2.8
2017-Sep-04 09:30N 48°20' W 004°31'3 5.4
2017-Sep-04 09:00N 48°20' W 004°35'2 4.5
2017-Sep-04 08:30N 48°17' W 004°35'1 0.0
2017-Sep-03 17:10N 48°17' W 004°35'0 0.0
2017-Sep-03 16:58N 48°17' W 004°35'1 1.2
2017-Sep-03 16:30N 48°17' W 004°36'2 4.4
2017-Sep-03 16:00N 48°17' W 004°39'2 3.7
2017-Sep-03 15:30N 48°16' W 004°41'3 5.7
2017-Sep-03 15:00N 48°14' W 004°40'6 6.1
2017-Sep-03 14:00N 48°09' W 004°34'7 6.4
2017-Sep-03 12:53N 48°07' W 004°24'2 0.2
2017-Sep-02 21:53N 48°06' W 004°20'0 0.0
2017-Sep-02 20:53N 48°06' W 004°20'0 0.0
2017-Sep-02 19:53N 48°06' W 004°20'0 0.0
2017-Sep-02 18:53N 48°06' W 004°20'0 0.0
2017-Sep-02 17:53N 48°06' W 004°20'0 0.0
2017-Sep-02 16:53N 48°06' W 004°20'1 0.9
2017-Sep-02 15:58N 48°07' W 004°21'6 5.5
2017-Sep-02 14:58N 48°11' W 004°26'3 2.9
2017-Sep-02 13:53N 48°11' W 004°30'3 3.1
2017-Sep-02 12:48N 48°10' W 004°35'2 2.9
2017-Sep-02 12:00N 48°12' W 004°36'1 2.7
2017-Sep-02 11:30N 48°13' W 004°37'2 3.3
2017-Sep-02 11:00N 48°14' W 004°38'2 4.2
2017-Sep-02 10:30N 48°17' W 004°38'3 6.1
2017-Sep-02 10:00N 48°19' W 004°36'3 5.5
2017-Sep-02 09:30N 48°21' W 004°32'3 6.0
2017-Sep-02 09:00N 48°22' W 004°28'2 3.9
2017-Sep-02 08:29N 48°23' W 004°26'0 0.0
2017-Aug-31 04:43N 48°24' W 004°26'0 0.0
2017-Aug-31 00:58N 48°24' W 004°26'0 0.0
2017-Aug-30 23:58N 48°24' W 004°26'0 0.0
2017-Aug-30 22:58N 48°24' W 004°26'0 0.0
2017-Aug-30 20:59N 48°24' W 004°26'0 0.0
2017-Aug-30 19:43N 48°24' W 004°26'0 0.0
2017-Aug-30 18:58N 48°24' W 004°26'0 0.0
2017-Aug-30 17:58N 48°24' W 004°26'0 0.0
2017-Aug-30 09:39N 48°24' W 004°26'1 4.0
2017-Aug-30 09:31N 48°23' W 004°26'2 4.7
2017-Aug-30 09:00N 48°22' W 004°29'1 1.2
2017-Aug-30 08:29N 48°23' W 004°29'0 0.0
2017-Aug-29 15:36N 48°23' W 004°29'0 0.0
2017-Aug-29 15:30N 48°23' W 004°29'1 1.9
2017-Aug-29 15:00N 48°22' W 004°29'2 4.2
2017-Aug-29 14:30N 48°20' W 004°28'1 2.0
2017-Aug-29 14:00N 48°20' W 004°27'0 0.0
2017-Aug-29 13:27N 48°20' W 004°27'0 0.0
2017-Aug-29 12:48N 48°20' W 004°27'0 0.0
2017-Aug-29 11:48N 48°20' W 004°27'0 0.0
2017-Aug-29 10:54N 48°20' W 004°27'1 3.2
2017-Aug-29 10:30N 48°20' W 004°29'2 4.9
2017-Aug-29 10:00N 48°21' W 004°32'2 4.6
2017-Aug-29 09:30N 48°19' W 004°35'2 4.4
2017-Aug-29 09:00N 48°17' W 004°35'0 0.0
2017-Aug-28 16:41N 48°17' W 004°35'0 0.3
2017-Aug-28 16:30N 48°17' W 004°35'2 3.8
2017-Aug-28 16:00N 48°17' W 004°38'2 4.7
2017-Aug-28 15:30N 48°15' W 004°40'3 5.4
2017-Aug-28 15:00N 48°13' W 004°37'4 4.3
2017-Aug-28 13:58N 48°10' W 004°32'4 0.8
2017-Aug-28 08:58N 48°14' W 004°30'0 0.0
2017-Aug-27 16:43N 48°13' W 004°30'2 0.8
2017-Aug-27 14:48N 48°12' W 004°30'3 4.2
2017-Aug-27 13:58N 48°10' W 004°35'3 5.7
2017-Aug-27 13:29N 48°13' W 004°36'2 4.8
2017-Aug-27 13:00N 48°15' W 004°38'2 4.9
2017-Aug-27 12:30N 48°17' W 004°38'2 4.0
2017-Aug-27 12:00N 48°17' W 004°35'0 0.0
2017-Aug-27 08:31N 48°17' W 004°35'0 0.0
2017-Aug-27 08:28N 48°17' W 004°35'0 0.3
2017-Aug-27 08:00N 48°17' W 004°35'0 0.0
2017-Aug-26 19:35N 48°17' W 004°35'0 0.0
2017-Aug-26 19:29N 48°17' W 004°35'1 2.6
2017-Aug-26 19:00N 48°18' W 004°35'2 4.7
2017-Aug-26 18:30N 48°20' W 004°34'2 4.2
2017-Aug-26 18:00N 48°21' W 004°31'2 3.7
2017-Aug-26 17:30N 48°22' W 004°29'2 3.7
2017-Aug-26 17:00N 48°23' W 004°26'1 0.7
2017-Aug-26 15:38N 48°24' W 004°26'  

Dump ship's entire track history